createdAt,value
2023-02-25T00:02:02.802Z,96.97
2023-02-25T00:04:32.501Z,96.66
2023-02-25T00:07:03.285Z,96.00
2023-02-25T00:09:32.389Z,95.10
2023-02-25T00:12:01.038Z,94.47
2023-02-25T00:14:29.674Z,94.89
2023-02-25T00:16:58.200Z,94.58
2023-02-25T00:19:27.665Z,94.10
2023-02-25T00:21:56.429Z,93.32
2023-02-25T00:24:26.292Z,92.81
2023-02-25T00:26:54.741Z,92.01
2023-02-25T00:29:23.228Z,91.95
2023-02-25T00:31:51.779Z,92.15
2023-02-25T00:34:20.453Z,92.24
2023-02-25T00:36:50.081Z,91.92
2023-02-25T00:39:18.648Z,91.79
2023-02-25T00:41:48.354Z,91.91
2023-02-25T00:44:16.981Z,91.79
2023-02-25T00:46:45.732Z,91.88
2023-02-25T00:49:26.997Z,91.69
2023-02-25T00:52:00.463Z,91.55
2023-02-25T00:54:29.104Z,91.03
2023-02-25T00:56:58.872Z,91.16
2023-02-25T00:59:27.596Z,91.64
2023-02-25T01:01:56.054Z,91.25
2023-02-25T01:04:24.730Z,91.42
2023-02-25T01:06:54.122Z,91.38
2023-02-25T01:09:22.830Z,91.38
2023-02-25T01:11:51.325Z,91.60
2023-02-25T01:14:23.182Z,91.26
2023-02-25T01:16:53.063Z,90.97
2023-02-25T01:19:23.642Z,91.01
2023-02-25T01:21:56.003Z,90.64
2023-02-25T01:24:27.565Z,90.47
2023-02-25T01:26:58.699Z,90.24
2023-02-25T01:29:31.023Z,90.32
2023-02-25T01:32:02.096Z,90.45
2023-02-25T01:34:30.954Z,89.94
2023-02-25T01:36:59.703Z,89.76
2023-02-25T01:39:29.095Z,89.75
2023-02-25T01:41:58.671Z,89.92
2023-02-25T01:44:33.417Z,89.80
2023-02-25T01:47:03.813Z,89.89
2023-02-25T01:49:35.485Z,89.93
2023-02-25T01:52:08.144Z,89.87
2023-02-25T01:54:38.392Z,89.02
2023-02-25T01:57:09.139Z,89.65
2023-02-25T01:59:40.262Z,89.71
2023-02-25T02:02:09.719Z,89.73
2023-02-25T02:04:39.547Z,89.53
2023-02-25T02:07:08.200Z,89.93
2023-02-25T02:09:37.737Z,90.07
2023-02-25T02:12:07.920Z,89.88
2023-02-25T02:14:41.403Z,89.69
2023-02-25T02:17:24.039Z,90.03
2023-02-25T02:20:09.857Z,90.11
2023-02-25T02:22:46.918Z,90.00
2023-02-25T02:26:12.110Z,89.85
2023-02-25T02:29:17.956Z,90.23
2023-02-25T02:31:55.551Z,90.25
2023-02-25T02:34:36.690Z,90.24
2023-02-25T02:37:15.621Z,90.33
2023-02-25T02:39:54.029Z,90.39
2023-02-25T02:42:31.875Z,90.70
2023-02-25T02:45:05.825Z,90.28
2023-02-25T02:47:39.387Z,90.67
2023-02-25T02:50:10.998Z,90.80
2023-02-25T02:52:44.324Z,90.51
2023-02-25T02:55:22.581Z,91.00
2023-02-25T02:57:54.705Z,90.77
2023-02-25T03:00:29.037Z,90.98
2023-02-25T03:03:03.534Z,91.36
2023-02-25T03:05:35.445Z,91.70
2023-02-25T03:08:08.758Z,92.02
2023-02-25T03:10:38.255Z,92.14
2023-02-25T03:13:06.826Z,92.33
2023-02-25T03:15:36.380Z,92.06
2023-02-25T03:18:11.269Z,92.25
2023-02-25T03:20:43.988Z,92.49
2023-02-25T03:23:27.417Z,92.25
2023-02-25T03:26:10.455Z,92.13
2023-02-25T03:28:40.149Z,92.28
2023-02-25T03:31:15.214Z,91.81
2023-02-25T03:33:49.843Z,92.09
2023-02-25T03:36:23.800Z,92.26
2023-02-25T03:38:57.419Z,91.52
2023-02-25T03:41:31.278Z,91.99
2023-02-25T03:44:01.108Z,92.47
2023-02-25T03:46:31.705Z,92.47
2023-02-25T03:49:04.071Z,93.24
2023-02-25T03:51:36.771Z,93.00
2023-02-25T03:54:11.576Z,92.92
2023-02-25T03:56:47.252Z,92.86
2023-02-25T03:59:16.907Z,92.55
2023-02-25T04:01:48.174Z,92.55
2023-02-25T04:04:18.251Z,92.89
2023-02-25T04:06:47.244Z,92.40
2023-02-25T04:09:15.691Z,92.07
2023-02-25T04:11:44.088Z,92.04
2023-02-25T04:14:12.596Z,91.93
2023-02-25T04:16:41.122Z,92.76
2023-02-25T04:19:23.120Z,92.80
2023-02-25T04:22:37.268Z,92.88
2023-02-25T04:25:11.652Z,92.90
2023-02-25T04:27:43.708Z,92.34
2023-02-25T04:30:16.308Z,91.80
2023-02-25T04:32:46.964Z,91.95
2023-02-25T04:35:16.029Z,91.85
2023-02-25T04:37:45.592Z,91.94
2023-02-25T04:40:17.887Z,91.74
2023-02-25T04:42:46.728Z,92.16
2023-02-25T04:45:16.563Z,92.05
2023-02-25T04:47:46.162Z,91.74
2023-02-25T04:50:14.623Z,91.29
2023-02-25T04:52:43.562Z,90.51
2023-02-25T04:55:13.070Z,90.73
2023-02-25T04:57:43.419Z,90.71
2023-02-25T05:00:19.114Z,90.71
2023-02-25T05:02:48.969Z,91.07
2023-02-25T05:05:19.142Z,90.98
2023-02-25T05:07:48.128Z,91.24
2023-02-25T05:10:19.735Z,91.16
2023-02-25T05:12:49.798Z,91.75
2023-02-25T05:15:18.580Z,91.45
2023-02-25T05:17:47.787Z,90.95
2023-02-25T05:20:16.696Z,91.06
2023-02-25T05:22:45.911Z,90.75
2023-02-25T05:25:15.042Z,90.33
2023-02-25T05:27:43.581Z,90.08
2023-02-25T05:30:14.796Z,90.21
2023-02-25T05:32:44.152Z,89.84
2023-02-25T05:35:17.633Z,90.03
2023-02-25T05:37:46.191Z,89.70
2023-02-25T05:40:15.053Z,89.41
2023-02-25T05:42:44.296Z,89.23
2023-02-25T05:45:14.655Z,89.01
2023-02-25T05:47:43.779Z,89.46
2023-02-25T05:50:12.998Z,89.86
2023-02-25T05:52:42.203Z,90.11
2023-02-25T05:55:12.416Z,90.50
2023-02-25T05:57:41.382Z,90.39
2023-02-25T06:00:14.671Z,89.99
2023-02-25T06:02:45.186Z,89.76
2023-02-25T06:05:14.202Z,89.91
2023-02-25T06:07:42.636Z,90.06
2023-02-25T06:10:12.817Z,90.17
2023-02-25T06:12:41.699Z,90.45
2023-02-25T06:15:10.557Z,90.21
2023-02-25T06:17:39.879Z,89.63
2023-02-25T06:20:11.597Z,89.42
2023-02-25T06:22:40.200Z,88.78
2023-02-25T06:25:09.615Z,88.79
2023-02-25T06:27:38.187Z,87.94
2023-02-25T06:30:08.764Z,87.93
2023-02-25T06:32:37.756Z,88.53
2023-02-25T06:35:07.847Z,87.96
2023-02-25T06:37:37.715Z,88.29
2023-02-25T06:40:08.079Z,87.58
2023-02-25T06:42:36.564Z,87.44
2023-02-25T06:45:05.923Z,87.32
2023-02-25T06:47:34.599Z,87.02
2023-02-25T06:50:03.049Z,87.25
2023-02-25T06:52:31.955Z,86.94
2023-02-25T06:55:01.782Z,86.87
2023-02-25T06:57:30.188Z,86.58
2023-02-25T06:59:58.508Z,87.02
2023-02-25T07:02:28.876Z,86.73
2023-02-25T07:04:57.656Z,86.48
2023-02-25T07:07:26.088Z,85.88
2023-02-25T07:09:54.433Z,85.83
2023-02-25T07:12:24.691Z,86.07
2023-02-25T07:14:53.143Z,85.76
2023-02-25T07:17:22.066Z,86.02
2023-02-25T07:19:50.682Z,86.38
2023-02-25T07:22:23.873Z,87.00
2023-02-25T07:24:52.619Z,87.52
2023-02-25T07:27:27.315Z,88.33
2023-02-25T07:30:05.268Z,89.49
2023-02-25T07:32:34.360Z,89.15
2023-02-25T07:35:04.486Z,89.14
2023-02-25T07:37:33.047Z,90.09
2023-02-25T07:40:01.777Z,90.89
2023-02-25T07:42:32.515Z,90.51
2023-02-25T07:45:02.279Z,89.76
2023-02-25T07:47:31.107Z,89.34
2023-02-25T07:49:59.558Z,88.32
2023-02-25T07:52:27.998Z,88.80
2023-02-25T07:54:56.599Z,88.34
2023-02-25T07:57:25.136Z,88.00
2023-02-25T07:59:54.981Z,87.82
2023-02-25T08:02:23.682Z,87.84
2023-02-25T08:04:52.460Z,88.13
2023-02-25T08:07:21.472Z,87.71
2023-02-25T08:09:50.039Z,88.12
2023-02-25T08:12:18.447Z,87.60
2023-02-25T08:14:46.836Z,87.18
2023-02-25T08:17:16.565Z,85.03
2023-02-25T08:19:45.170Z,83.96
2023-02-25T08:22:13.856Z,83.55
2023-02-25T08:24:42.507Z,81.51
2023-02-25T08:27:11.197Z,79.22
2023-02-25T08:29:39.917Z,77.43
2023-02-25T08:32:08.979Z,78.05
2023-02-25T08:34:38.997Z,69.50
2023-02-25T08:37:11.012Z,69.63
2023-02-25T08:39:39.642Z,69.10
2023-02-25T08:42:08.119Z,69.87
2023-02-25T08:44:37.058Z,70.79
2023-02-25T08:47:05.694Z,71.32
2023-02-25T08:49:34.114Z,71.88
2023-02-25T08:52:03.898Z,72.40
2023-02-25T08:54:32.581Z,73.96
2023-02-25T08:57:01.381Z,72.77
2023-02-25T08:59:36.052Z,73.94
2023-02-25T09:02:06.279Z,74.50
2023-02-25T09:04:35.780Z,75.04
2023-02-25T09:07:05.738Z,76.60
2023-02-25T09:09:34.172Z,76.73
2023-02-25T09:12:05.232Z,77.31
2023-02-25T09:14:34.985Z,77.11
2023-02-25T09:17:03.895Z,75.55
2023-02-25T09:19:38.333Z,76.48
2023-02-25T09:22:09.692Z,75.99
2023-02-25T09:24:38.530Z,75.90
2023-02-25T09:27:08.068Z,76.48
2023-02-25T09:29:38.321Z,76.02
2023-02-25T09:32:07.835Z,75.09
2023-02-25T09:34:37.842Z,74.32
2023-02-25T09:37:06.889Z,72.89
2023-02-25T09:39:36.648Z,72.75
2023-02-25T09:42:10.458Z,71.64
2023-02-25T09:44:44.539Z,70.50
2023-02-25T09:47:19.350Z,72.00
2023-02-25T09:49:53.141Z,71.70
2023-02-25T09:52:28.741Z,72.27
2023-02-25T09:55:04.520Z,70.84
2023-02-25T09:57:38.505Z,71.70
2023-02-25T10:00:17.019Z,72.24
2023-02-25T10:02:52.097Z,74.57
2023-02-25T10:05:30.201Z,74.13
2023-02-25T10:08:08.544Z,74.76
2023-02-25T10:10:48.937Z,75.85
2023-02-25T10:13:28.690Z,70.71
2023-02-25T10:16:07.234Z,67.35
2023-02-25T10:18:49.583Z,67.08
2023-02-25T10:21:31.162Z,67.06
2023-02-25T10:24:16.273Z,67.06
2023-02-25T10:26:50.458Z,65.96
2023-02-25T10:29:28.374Z,70.06
2023-02-25T10:32:00.298Z,73.12
2023-02-25T10:34:30.592Z,70.93
2023-02-25T10:37:01.041Z,65.70
2023-02-25T10:39:31.215Z,64.60
2023-02-25T10:42:01.597Z,54.26
2023-02-25T10:44:30.058Z,44.98
2023-02-25T10:47:02.849Z,37.45
2023-02-25T10:49:38.116Z,33.31
2023-02-25T10:52:10.225Z,34.35
2023-02-25T10:54:47.956Z,39.52
2023-02-25T10:57:25.780Z,45.10
2023-02-25T11:00:01.206Z,49.23
2023-02-25T11:02:31.814Z,52.66
2023-02-25T11:05:00.386Z,54.68
2023-02-25T11:07:34.105Z,47.09
2023-02-25T11:10:15.596Z,38.27
2023-02-25T11:12:47.107Z,32.86
2023-02-25T11:15:46.589Z,27.60
2023-02-25T11:18:21.655Z,29.51
2023-02-25T11:20:54.077Z,33.79
2023-02-25T11:23:28.318Z,34.18
2023-02-25T11:25:57.747Z,37.19
2023-02-25T11:28:34.095Z,40.70
2023-02-25T11:31:11.272Z,47.62
2023-02-25T11:33:43.627Z,53.30
2023-02-25T11:36:13.238Z,57.21
2023-02-25T11:38:43.212Z,59.66
2023-02-25T11:41:21.553Z,60.56
2023-02-25T11:43:51.620Z,58.30
2023-02-25T11:46:23.851Z,51.01
2023-02-25T11:48:56.301Z,45.76
2023-02-25T11:51:27.735Z,45.73
2023-02-25T11:54:10.095Z,44.92
2023-02-25T11:56:43.933Z,38.72
2023-02-25T11:59:29.297Z,35.43
2023-02-25T12:02:20.677Z,36.25
2023-02-25T12:05:07.347Z,40.09
2023-02-25T12:08:13.830Z,37.49
2023-02-25T12:11:26.532Z,31.31
2023-02-25T12:14:18.854Z,26.73
2023-02-25T12:17:21.476Z,26.25
2023-02-25T12:20:34.175Z,26.33
2023-02-25T12:23:39.084Z,29.37
2023-02-25T12:26:14.516Z,27.49
2023-02-25T12:29:03.533Z,24.72
2023-02-25T12:32:04.275Z,24.20
2023-02-25T12:35:06.962Z,23.17
2023-02-25T12:37:55.818Z,21.21
2023-02-25T12:40:39.592Z,20.34
2023-02-25T12:43:25.957Z,22.54
2023-02-25T12:46:12.130Z,21.80
2023-02-25T12:49:05.454Z,24.72
2023-02-25T12:52:04.214Z,24.24
2023-02-25T12:54:58.113Z,26.25
2023-02-25T12:57:42.164Z,29.29
2023-02-25T13:00:44.709Z,27.06
2023-02-25T13:03:49.753Z,26.73
2023-02-25T13:06:47.744Z,26.28
2023-02-25T13:09:48.573Z,23.13
2023-02-25T13:12:34.004Z,21.37
2023-02-25T13:15:10.485Z,20.50
2023-02-25T13:17:56.090Z,21.03
2023-02-25T13:20:51.612Z,19.96
2023-02-25T13:23:34.640Z,20.36
2023-02-25T13:26:19.593Z,22.23
2023-02-25T13:29:28.668Z,22.84
2023-02-25T13:32:16.089Z,23.92
2023-02-25T13:34:51.957Z,23.42
2023-02-25T13:37:37.742Z,20.70
2023-02-25T13:40:32.432Z,21.50
2023-02-25T13:43:19.043Z,21.58
2023-02-25T13:45:58.048Z,21.01
2023-02-25T13:48:50.845Z,19.74
2023-02-25T13:52:07.806Z,23.80
2023-02-25T13:55:07.737Z,27.20
2023-02-25T13:57:44.994Z,30.45
2023-02-25T14:00:43.441Z,30.35
2023-02-25T14:03:49.055Z,28.13
2023-02-25T14:06:30.468Z,25.63
2023-02-25T14:09:14.966Z,26.59
2023-02-25T14:11:57.861Z,27.64
2023-02-25T14:14:54.565Z,26.48
2023-02-25T14:17:45.301Z,25.04
2023-02-25T14:20:29.179Z,24.39
2023-02-25T14:23:02.359Z,23.47
2023-02-25T14:25:45.807Z,23.22
2023-02-25T14:28:23.622Z,24.05
2023-02-25T14:31:08.218Z,22.67
2023-02-25T14:33:52.942Z,23.10
2023-02-25T14:36:36.740Z,24.73
2023-02-25T14:39:23.703Z,24.71
2023-02-25T14:42:05.608Z,24.77
2023-02-25T14:44:41.836Z,26.61
2023-02-25T14:47:14.316Z,26.09
2023-02-25T14:49:55.396Z,26.58
2023-02-25T14:52:50.775Z,25.99
2023-02-25T14:55:50.254Z,26.81
2023-02-25T14:58:44.881Z,26.23
2023-02-25T15:01:38.629Z,26.77
2023-02-25T15:04:35.476Z,26.87
2023-02-25T15:07:20.550Z,29.21
2023-02-25T15:10:18.434Z,29.67
2023-02-25T15:13:27.256Z,29.33
2023-02-25T15:16:29.712Z,29.42
2023-02-25T15:19:27.057Z,30.04
2023-02-25T15:22:19.358Z,32.06
2023-02-25T15:24:48.801Z,32.24
2023-02-25T15:27:43.077Z,34.01
2023-02-25T15:30:13.455Z,35.73
2023-02-25T15:32:54.179Z,37.24
2023-02-25T15:35:25.281Z,35.97
2023-02-25T15:38:13.624Z,38.46
2023-02-25T15:40:47.198Z,39.21
2023-02-25T15:43:40.888Z,38.23
2023-02-25T15:46:43.654Z,37.89
2023-02-25T15:49:29.129Z,40.66
2023-02-25T15:51:59.474Z,38.94
2023-02-25T15:54:51.140Z,40.14
2023-02-25T15:57:42.039Z,40.38
2023-02-25T16:00:44.365Z,40.42
2023-02-25T16:03:40.202Z,41.09
2023-02-25T16:06:14.357Z,41.09
2023-02-25T16:08:53.149Z,40.88
2023-02-25T16:11:35.728Z,40.75
2023-02-25T16:14:07.992Z,41.65
2023-02-25T16:16:40.678Z,41.08
2023-02-25T16:19:16.948Z,41.48
2023-02-25T16:21:49.076Z,40.95
2023-02-25T16:24:19.883Z,42.07
2023-02-25T16:26:58.781Z,42.84
2023-02-25T16:29:46.316Z,43.23
2023-02-25T16:32:26.633Z,43.01
2023-02-25T16:35:00.719Z,42.64
2023-02-25T16:37:39.649Z,42.00
2023-02-25T16:40:15.855Z,42.66
2023-02-25T16:42:47.039Z,42.00
2023-02-25T16:45:25.929Z,42.42
2023-02-25T16:48:01.287Z,41.82
2023-02-25T16:50:32.523Z,42.16
2023-02-25T16:53:03.324Z,42.13
2023-02-25T16:55:39.877Z,43.75
2023-02-25T16:58:24.144Z,43.90
2023-02-25T17:00:55.033Z,43.77
2023-02-25T17:03:27.475Z,44.21
2023-02-25T17:06:06.232Z,44.88
2023-02-25T17:08:35.508Z,45.04
2023-02-25T17:11:06.741Z,44.67
2023-02-25T17:13:41.852Z,45.22
2023-02-25T17:16:21.286Z,45.55
2023-02-25T17:18:54.543Z,46.52
2023-02-25T17:21:26.120Z,45.74
2023-02-25T17:23:54.752Z,47.01
2023-02-25T17:26:26.047Z,46.48
2023-02-25T17:28:58.738Z,46.56
2023-02-25T17:31:30.377Z,47.01
2023-02-25T17:34:01.161Z,47.77
2023-02-25T17:36:35.360Z,48.31
2023-02-25T17:39:07.406Z,48.18
2023-02-25T17:41:37.150Z,48.24
2023-02-25T17:44:07.657Z,49.50
2023-02-25T17:46:39.393Z,49.49
2023-02-25T17:49:21.396Z,49.63
2023-02-25T17:51:55.726Z,49.71
2023-02-25T17:54:27.482Z,50.25
2023-02-25T17:56:59.980Z,49.42
2023-02-25T17:59:38.398Z,49.97
2023-02-25T18:02:28.887Z,49.82
2023-02-25T18:05:22.291Z,50.88
2023-02-25T18:08:10.734Z,51.03
2023-02-25T18:10:52.380Z,52.32
2023-02-25T18:13:26.160Z,53.20
2023-02-25T18:16:31.340Z,53.97
2023-02-25T18:19:01.362Z,53.82
2023-02-25T18:21:30.808Z,53.59
2023-02-25T18:24:01.601Z,55.66
2023-02-25T18:26:53.322Z,55.64
2023-02-25T18:29:24.267Z,56.29
2023-02-25T18:31:53.596Z,55.44
2023-02-25T18:34:22.204Z,55.71
2023-02-25T18:36:55.259Z,56.54
2023-02-25T18:39:27.101Z,57.00
2023-02-25T18:41:58.181Z,57.05
2023-02-25T18:44:30.493Z,56.05
2023-02-25T18:47:07.032Z,57.01
2023-02-25T18:49:35.819Z,58.31
2023-02-25T18:52:04.605Z,58.49
2023-02-25T18:54:34.354Z,58.30
2023-02-25T18:57:04.221Z,58.61
2023-02-25T18:59:34.158Z,58.57
2023-02-25T19:02:03.321Z,58.92
2023-02-25T19:04:31.779Z,59.30
2023-02-25T19:07:00.232Z,58.64
2023-02-25T19:09:29.091Z,60.33
2023-02-25T19:11:58.993Z,59.98
2023-02-25T19:14:28.277Z,61.93
2023-02-25T19:16:59.624Z,61.44
2023-02-25T19:19:29.557Z,61.40
2023-02-25T19:21:58.762Z,61.04
2023-02-25T19:24:28.974Z,61.71
2023-02-25T19:27:00.758Z,62.20
2023-02-25T19:29:29.269Z,63.11
2023-02-25T19:31:59.164Z,63.65
2023-02-25T19:34:28.024Z,63.96
2023-02-25T19:36:56.835Z,64.59
2023-02-25T19:39:25.680Z,64.87
2023-02-25T19:41:54.484Z,65.22
2023-02-25T19:44:38.644Z,66.05
2023-02-25T19:47:08.966Z,65.91
2023-02-25T19:49:37.831Z,66.20
2023-02-25T19:52:07.139Z,66.41
2023-02-25T19:54:36.505Z,67.16
2023-02-25T19:57:05.586Z,67.50
2023-02-25T19:59:42.363Z,67.74
2023-02-25T20:02:14.387Z,67.58
2023-02-25T20:04:43.908Z,67.69
2023-02-25T20:07:15.921Z,68.21
2023-02-25T20:09:44.788Z,68.22
2023-02-25T20:12:14.026Z,68.39
2023-02-25T20:14:43.182Z,68.43
2023-02-25T20:17:13.326Z,68.43
2023-02-25T20:19:42.607Z,68.85
2023-02-25T20:22:12.574Z,69.30
2023-02-25T20:24:43.505Z,68.07
2023-02-25T20:27:13.049Z,67.89
2023-02-25T20:29:42.117Z,67.26
2023-02-25T20:32:11.805Z,67.15
2023-02-25T20:34:42.401Z,67.92
2023-02-25T20:37:15.661Z,68.21
2023-02-25T20:39:55.416Z,68.69
2023-02-25T20:42:27.682Z,68.93
2023-02-25T20:44:58.183Z,69.42
2023-02-25T20:47:30.217Z,69.66
2023-02-25T20:50:00.889Z,68.85
2023-02-25T20:52:32.314Z,68.37
2023-02-25T20:55:01.234Z,69.20
2023-02-25T20:57:30.363Z,69.23
2023-02-25T20:59:59.184Z,69.07
2023-02-25T21:02:27.929Z,68.95
2023-02-25T21:04:56.656Z,69.26
2023-02-25T21:07:27.002Z,69.58
2023-02-25T21:09:56.128Z,68.98
2023-02-25T21:12:25.155Z,69.54
2023-02-25T21:14:54.231Z,69.46
2023-02-25T21:17:23.145Z,70.06
2023-02-25T21:19:53.572Z,69.74
2023-02-25T21:22:22.150Z,69.86
2023-02-25T21:24:53.331Z,70.62
2023-02-25T21:27:24.011Z,70.44
2023-02-25T21:29:53.576Z,70.30
2023-02-25T21:32:22.736Z,70.98
2023-02-25T21:34:51.834Z,71.35
2023-02-25T21:37:20.686Z,71.12
2023-02-25T21:39:49.406Z,71.50
2023-02-25T21:42:19.602Z,72.49
2023-02-25T21:44:48.116Z,73.09
2023-02-25T21:47:17.812Z,73.39
2023-02-25T21:49:46.537Z,72.73
2023-02-25T21:52:16.561Z,72.96
2023-02-25T21:54:47.472Z,73.33
2023-02-25T21:57:19.309Z,73.39
2023-02-25T21:59:53.759Z,73.79
2023-02-25T22:02:23.191Z,74.01
2023-02-25T22:04:53.527Z,74.09
2023-02-25T22:07:23.629Z,74.50
2023-02-25T22:09:51.985Z,74.66
2023-02-25T22:12:20.446Z,74.83
2023-02-25T22:14:50.308Z,74.84
2023-02-25T22:17:19.204Z,75.36
2023-02-25T22:19:49.889Z,75.27
2023-02-25T22:22:20.784Z,76.05
2023-02-25T22:24:49.344Z,76.17
2023-02-25T22:27:20.270Z,76.58
2023-02-25T22:29:50.078Z,76.37
2023-02-25T22:32:18.506Z,76.77
2023-02-25T22:34:47.025Z,77.16
2023-02-25T22:37:15.678Z,77.47
2023-02-25T22:39:44.197Z,77.55
2023-02-25T22:42:12.722Z,77.94
2023-02-25T22:44:41.160Z,78.12
2023-02-25T22:47:10.936Z,77.97
2023-02-25T22:49:39.375Z,77.54
2023-02-25T22:52:07.834Z,77.18
2023-02-25T22:54:36.400Z,76.85
2023-02-25T22:57:04.936Z,76.14
2023-02-25T22:59:33.451Z,76.03
2023-02-25T23:02:02.750Z,76.14
2023-02-25T23:04:32.787Z,75.83
2023-02-25T23:07:01.782Z,76.24
2023-02-25T23:09:30.184Z,75.82
2023-02-25T23:11:59.823Z,75.48
2023-02-25T23:14:28.793Z,74.61
2023-02-25T23:16:57.408Z,74.39
2023-02-25T23:19:25.770Z,74.31
2023-02-25T23:21:55.491Z,74.04
2023-02-25T23:24:23.849Z,74.38
2023-02-25T23:26:54.199Z,74.75
2023-02-25T23:29:22.819Z,74.85
2023-02-25T23:31:51.372Z,75.38
2023-02-25T23:34:22.809Z,75.43
2023-02-25T23:36:51.862Z,75.97
2023-02-25T23:39:23.577Z,76.15
2023-02-25T23:41:52.090Z,76.43
2023-02-25T23:44:20.689Z,76.67
2023-02-25T23:46:49.585Z,77.12
2023-02-25T23:49:18.300Z,77.08
2023-02-25T23:51:48.534Z,77.51
2023-02-25T23:54:18.951Z,77.21
2023-02-25T23:56:49.804Z,77.56
2023-02-25T23:59:18.569Z,77.91
